createdAt,value
2022-10-13T00:00:56.551Z,1001.24
2022-10-13T00:01:56.525Z,1001.22
2022-10-13T00:02:56.497Z,1001.12
2022-10-13T00:03:56.488Z,1001.13
2022-10-13T00:04:56.468Z,1001.14
2022-10-13T00:05:56.461Z,1001.14
2022-10-13T00:06:56.465Z,1001.08
2022-10-13T00:07:56.440Z,1001.12
2022-10-13T00:08:56.433Z,1001.14
2022-10-13T00:09:56.419Z,1001.10
2022-10-13T00:10:56.408Z,1001.05
2022-10-13T00:11:56.420Z,1001.04
2022-10-13T00:12:56.380Z,1001.06
2022-10-13T00:13:56.381Z,1001.08
2022-10-13T00:14:56.382Z,1001.11
2022-10-13T00:15:56.360Z,1001.09
2022-10-13T00:16:56.362Z,1001.04
2022-10-13T00:17:56.347Z,1001.00
2022-10-13T00:18:56.332Z,1000.99
2022-10-13T00:19:56.320Z,1001.01
2022-10-13T00:20:56.304Z,1000.99
2022-10-13T00:21:56.314Z,1000.96
2022-10-13T00:22:56.284Z,1001.00
2022-10-13T00:23:56.272Z,1001.01
2022-10-13T00:24:56.264Z,1001.02
2022-10-13T00:25:56.253Z,1001.01
2022-10-13T00:26:56.263Z,1000.96
2022-10-13T00:27:56.233Z,1000.94
2022-10-13T00:28:56.268Z,1000.93
2022-10-13T00:29:56.214Z,1000.93
2022-10-13T00:30:56.196Z,1000.93
2022-10-13T00:31:56.205Z,1000.99
2022-10-13T00:32:56.176Z,1000.94
2022-10-13T00:33:56.168Z,1001.03
2022-10-13T00:34:56.147Z,1000.97
2022-10-13T00:35:56.165Z,1001.01
2022-10-13T00:36:56.146Z,1001.06
2022-10-13T00:37:56.128Z,1001.06
2022-10-13T00:38:56.108Z,1001.11
2022-10-13T00:39:56.108Z,1001.10
2022-10-13T00:40:56.106Z,1001.04
2022-10-13T00:41:56.098Z,1000.98
2022-10-13T00:42:56.075Z,1000.99
2022-10-13T00:43:56.070Z,1000.99
2022-10-13T00:44:56.053Z,1000.94
2022-10-13T00:45:56.048Z,1001.02
2022-10-13T00:46:56.072Z,1001.02
2022-10-13T00:47:56.020Z,1001.03
2022-10-13T00:48:56.009Z,1001.06
2022-10-13T00:49:56.001Z,1000.93
2022-10-13T00:50:55.982Z,1000.98
2022-10-13T00:51:56.000Z,1000.95
2022-10-13T00:52:55.963Z,1000.93
2022-10-13T00:53:55.972Z,1000.88
2022-10-13T00:54:55.953Z,1000.93
2022-10-13T00:55:55.933Z,1000.94
2022-10-13T00:56:55.941Z,1000.97
2022-10-13T00:57:55.918Z,1000.92
2022-10-13T00:58:55.904Z,1000.92
2022-10-13T00:59:55.894Z,1000.94
2022-10-13T01:00:55.962Z,1000.97
2022-10-13T01:01:55.893Z,1000.92
2022-10-13T01:02:55.864Z,1000.95
2022-10-13T01:03:55.855Z,1000.98
2022-10-13T01:04:55.836Z,1000.94
2022-10-13T01:05:55.833Z,1000.92
2022-10-13T01:06:55.837Z,1000.93
2022-10-13T01:07:55.813Z,1000.96
2022-10-13T01:08:55.795Z,1000.95
2022-10-13T01:09:55.795Z,1000.96
2022-10-13T01:10:55.796Z,1000.90
2022-10-13T01:11:55.786Z,1000.91
2022-10-13T01:12:55.759Z,1000.89
2022-10-13T01:13:55.751Z,1000.89
2022-10-13T01:14:55.736Z,1000.92
2022-10-13T01:15:55.728Z,1000.87
2022-10-13T01:16:55.730Z,1000.85
2022-10-13T01:17:55.730Z,1000.91
2022-10-13T01:18:55.701Z,1000.90
2022-10-13T01:19:55.681Z,1000.87
2022-10-13T01:20:55.670Z,1000.91
2022-10-13T01:21:55.703Z,1000.88
2022-10-13T01:22:55.649Z,1000.91
2022-10-13T01:23:55.649Z,1000.93
2022-10-13T01:24:55.632Z,1000.90
2022-10-13T01:25:55.622Z,1000.81
2022-10-13T01:26:55.633Z,1000.83
2022-10-13T01:27:55.613Z,1000.79
2022-10-13T01:28:55.592Z,1000.82
2022-10-13T01:29:55.584Z,1000.81
2022-10-13T01:30:55.563Z,1000.80
2022-10-13T01:31:55.580Z,1000.77
2022-10-13T01:32:55.544Z,1000.78
2022-10-13T01:33:55.545Z,1000.78
2022-10-13T01:34:55.529Z,1000.84
2022-10-13T01:35:55.533Z,1000.81
2022-10-13T01:36:55.526Z,1000.78
2022-10-13T01:37:55.497Z,1000.84
2022-10-13T01:38:55.483Z,1000.79
2022-10-13T01:39:55.476Z,1000.81
2022-10-13T01:40:55.463Z,1000.79
2022-10-13T01:41:55.474Z,1000.83
2022-10-13T01:42:55.436Z,1000.81
2022-10-13T01:43:55.437Z,1000.76
2022-10-13T01:44:55.417Z,1000.74
2022-10-13T01:45:55.416Z,1000.78
2022-10-13T01:46:55.419Z,1000.69
2022-10-13T01:47:55.395Z,1000.67
2022-10-13T01:48:55.391Z,1000.67
2022-10-13T01:49:55.368Z,1000.67
2022-10-13T01:50:55.372Z,1000.68
2022-10-13T01:51:55.374Z,1000.66
2022-10-13T01:52:55.330Z,1000.61
2022-10-13T01:53:55.341Z,1000.65
2022-10-13T01:54:55.328Z,1000.63
2022-10-13T01:55:55.300Z,1000.57
2022-10-13T01:56:55.322Z,1000.57
2022-10-13T01:57:55.280Z,1000.60
2022-10-13T01:58:55.280Z,1000.54
2022-10-13T01:59:55.261Z,1000.55
2022-10-13T02:00:55.297Z,1000.57
2022-10-13T02:01:55.261Z,1000.57
2022-10-13T02:02:55.240Z,1000.49
2022-10-13T02:03:55.220Z,1000.49
2022-10-13T02:04:55.213Z,1000.52
2022-10-13T02:05:55.194Z,1000.53
2022-10-13T02:06:55.258Z,1000.52
2022-10-13T02:07:55.174Z,1000.53
2022-10-13T02:08:55.173Z,1000.59
2022-10-13T02:09:55.164Z,1000.58
2022-10-13T02:10:55.151Z,1000.49
2022-10-13T02:11:55.152Z,1000.48
2022-10-13T02:12:55.125Z,1000.44
2022-10-13T02:13:55.115Z,1000.41
2022-10-13T02:14:55.106Z,1000.42
2022-10-13T02:15:55.096Z,1000.40
2022-10-13T02:16:55.105Z,1000.37
2022-10-13T02:17:55.074Z,1000.40
2022-10-13T02:18:55.065Z,1000.34
2022-10-13T02:19:55.048Z,1000.36
2022-10-13T02:20:55.045Z,1000.32
2022-10-13T02:21:55.046Z,1000.39
2022-10-13T02:22:55.019Z,1000.35
2022-10-13T02:23:55.006Z,1000.31
2022-10-13T02:24:55.008Z,1000.31
2022-10-13T02:25:54.989Z,1000.28
2022-10-13T02:26:54.999Z,1000.26
2022-10-13T02:27:54.961Z,1000.26
2022-10-13T02:28:54.960Z,1000.27
2022-10-13T02:29:54.939Z,1000.24
2022-10-13T02:30:54.942Z,1000.22
2022-10-13T02:31:54.978Z,1000.20
2022-10-13T02:32:54.910Z,1000.20
2022-10-13T02:33:54.901Z,1000.16
2022-10-13T02:34:54.892Z,1000.19
2022-10-13T02:35:54.880Z,1000.16
2022-10-13T02:36:54.892Z,1000.22
2022-10-13T02:37:54.872Z,1000.26
2022-10-13T02:38:54.862Z,1000.22
2022-10-13T02:39:54.862Z,1000.23
2022-10-13T02:40:54.860Z,1000.22
2022-10-13T02:41:54.843Z,1000.19
2022-10-13T02:42:54.812Z,1000.22
2022-10-13T02:43:54.801Z,1000.16
2022-10-13T02:44:54.794Z,1000.17
2022-10-13T02:45:54.774Z,1000.14
2022-10-13T02:46:54.785Z,1000.16
2022-10-13T02:47:54.751Z,1000.13
2022-10-13T02:48:54.764Z,1000.10
2022-10-13T02:49:54.733Z,1000.14
2022-10-13T02:50:54.726Z,1000.09
2022-10-13T02:51:54.725Z,1000.08
2022-10-13T02:52:54.703Z,1000.13
2022-10-13T02:53:54.711Z,1000.09
2022-10-13T02:54:54.683Z,1000.08
2022-10-13T02:55:54.667Z,1000.07
2022-10-13T02:56:54.691Z,1000.05
2022-10-13T02:57:54.655Z,1000.08
2022-10-13T02:58:54.659Z,1000.06
2022-10-13T02:59:54.630Z,1000.00
2022-10-13T03:00:54.714Z,1000.01
2022-10-13T03:01:54.618Z,1000.00
2022-10-13T03:02:54.597Z,999.97
2022-10-13T03:03:54.581Z,999.97
2022-10-13T03:04:54.584Z,1000.06
2022-10-13T03:05:54.563Z,1000.07
2022-10-13T03:06:54.587Z,1000.04
2022-10-13T03:07:54.539Z,1000.06
2022-10-13T03:08:54.531Z,1000.02
2022-10-13T03:09:54.520Z,999.98
2022-10-13T03:10:54.512Z,1000.01
2022-10-13T03:11:54.511Z,1000.03
2022-10-13T03:12:54.492Z,1000.03
2022-10-13T03:13:54.472Z,1000.01
2022-10-13T03:14:54.463Z,1000.07
2022-10-13T03:15:54.733Z,1000.09
2022-10-13T03:16:54.475Z,1000.09
2022-10-13T03:17:54.443Z,1000.09
2022-10-13T03:18:54.432Z,1000.13
2022-10-13T03:19:54.414Z,1000.12
2022-10-13T03:20:54.405Z,1000.10
2022-10-13T03:21:54.415Z,1000.03
2022-10-13T03:22:54.385Z,1000.05
2022-10-13T03:23:54.364Z,1000.06
2022-10-13T03:24:54.363Z,1000.04
2022-10-13T03:25:54.354Z,1000.05
2022-10-13T03:26:54.357Z,1000.05
2022-10-13T03:27:54.327Z,1000.02
2022-10-13T03:28:54.318Z,1000.04
2022-10-13T03:29:54.306Z,1000.05
2022-10-13T03:30:54.298Z,1000.05
2022-10-13T03:31:54.297Z,1000.06
2022-10-13T03:32:54.277Z,1000.15
2022-10-13T03:33:54.260Z,1000.13
2022-10-13T03:34:54.276Z,1000.13
2022-10-13T03:35:54.239Z,1000.16
2022-10-13T03:36:54.250Z,1000.06
2022-10-13T03:37:54.221Z,1000.08
2022-10-13T03:38:54.211Z,1000.12
2022-10-13T03:39:54.199Z,1000.17
2022-10-13T03:40:54.199Z,1000.17
2022-10-13T03:41:54.200Z,1000.15
2022-10-13T03:42:54.170Z,1000.18
2022-10-13T03:43:54.164Z,1000.19
2022-10-13T03:44:56.518Z,1000.17
2022-10-13T03:45:54.133Z,1000.17
2022-10-13T03:46:54.143Z,1000.19
2022-10-13T03:47:54.123Z,1000.20
2022-10-13T03:48:54.115Z,1000.18
2022-10-13T03:49:54.098Z,1000.12
2022-10-13T03:50:54.087Z,1000.19
2022-10-13T03:51:54.085Z,1000.17
2022-10-13T03:52:54.064Z,1000.17
2022-10-13T03:53:54.054Z,1000.17
2022-10-13T03:54:54.043Z,1000.19
2022-10-13T03:55:54.026Z,1000.16
2022-10-13T03:56:54.037Z,1000.17
2022-10-13T03:57:54.005Z,1000.13
2022-10-13T03:58:54.003Z,1000.20
2022-10-13T03:59:53.987Z,1000.16
2022-10-13T04:00:53.983Z,1000.18
2022-10-13T04:01:54.014Z,1000.14
2022-10-13T04:02:53.965Z,1000.14
2022-10-13T04:03:53.947Z,1000.14
2022-10-13T04:04:53.937Z,1000.11
2022-10-13T04:05:53.925Z,1000.07
2022-10-13T04:06:53.948Z,1000.10
2022-10-13T04:07:53.910Z,1000.13
2022-10-13T04:08:53.898Z,1000.15
2022-10-13T04:09:53.879Z,1000.17
2022-10-13T04:10:53.869Z,1000.18
2022-10-13T04:11:53.878Z,1000.18
2022-10-13T04:12:53.860Z,1000.11
2022-10-13T04:13:53.838Z,1000.15
2022-10-13T04:14:53.831Z,1000.13
2022-10-13T04:15:53.811Z,1000.10
2022-10-13T04:16:53.831Z,1000.14
2022-10-13T04:17:53.791Z,1000.16
2022-10-13T04:18:53.791Z,1000.15
2022-10-13T04:19:53.782Z,1000.20
2022-10-13T04:20:53.782Z,1000.18
2022-10-13T04:21:53.771Z,1000.24
2022-10-13T04:22:53.743Z,1000.21
2022-10-13T04:23:53.733Z,1000.21
2022-10-13T04:24:53.764Z,1000.21
2022-10-13T04:25:53.714Z,1000.27
2022-10-13T04:26:53.722Z,1000.23
2022-10-13T04:27:53.684Z,1000.20
2022-10-13T04:28:53.734Z,1000.24
2022-10-13T04:29:53.675Z,1000.22
2022-10-13T04:30:53.669Z,1000.24
2022-10-13T04:31:53.666Z,1000.21
2022-10-13T04:32:53.644Z,1000.27
2022-10-13T04:33:53.625Z,1000.28
2022-10-13T04:34:53.625Z,1000.28
2022-10-13T04:35:53.615Z,1000.30
2022-10-13T04:36:53.616Z,1000.28
2022-10-13T04:37:53.587Z,1000.21
2022-10-13T04:38:53.595Z,1000.24
2022-10-13T04:39:53.558Z,1000.25
2022-10-13T04:40:53.559Z,1000.24
2022-10-13T04:41:53.570Z,1000.20
2022-10-13T04:42:53.538Z,1000.14
2022-10-13T04:43:53.529Z,1000.19
2022-10-13T04:44:53.516Z,1000.19
2022-10-13T04:45:53.500Z,1000.08
2022-10-13T04:46:53.509Z,1000.12
2022-10-13T04:47:53.489Z,1000.10
2022-10-13T04:48:53.471Z,1000.04
2022-10-13T04:49:53.459Z,1000.07
2022-10-13T04:50:53.451Z,1000.08
2022-10-13T04:51:53.480Z,1000.07
2022-10-13T04:52:53.432Z,1000.06
2022-10-13T04:53:53.422Z,1000.00
2022-10-13T04:54:53.411Z,1000.03
2022-10-13T04:55:53.403Z,1000.02
2022-10-13T04:56:53.410Z,1000.05
2022-10-13T04:57:53.409Z,1000.03
2022-10-13T04:58:53.377Z,1000.06
2022-10-13T04:59:53.356Z,1000.05
2022-10-13T05:00:53.372Z,1000.02
2022-10-13T05:01:53.366Z,999.96
2022-10-13T05:02:53.331Z,999.95
2022-10-13T05:03:53.313Z,1000.02
2022-10-13T05:04:53.319Z,1000.00
2022-10-13T05:05:53.285Z,999.96
2022-10-13T05:07:16.629Z,1000.01
2022-10-13T05:07:54.276Z,999.99
2022-10-13T05:08:53.261Z,999.96
2022-10-13T05:09:53.247Z,999.97
2022-10-13T05:10:53.245Z,999.93
2022-10-13T05:11:53.239Z,999.93
2022-10-13T05:12:53.218Z,999.94
2022-10-13T05:13:53.205Z,999.94
2022-10-13T05:14:53.198Z,999.95
2022-10-13T05:15:53.192Z,999.94
2022-10-13T05:16:53.201Z,999.93
2022-10-13T05:17:53.160Z,999.94
2022-10-13T05:18:53.160Z,999.88
2022-10-13T05:19:53.149Z,999.87
2022-10-13T05:20:53.130Z,999.85
2022-10-13T05:21:53.091Z,999.84
2022-10-13T05:22:53.060Z,999.82
2022-10-13T05:23:53.101Z,999.86
2022-10-13T05:24:53.097Z,999.89
2022-10-13T05:25:53.080Z,999.90
2022-10-13T05:26:53.101Z,999.81
2022-10-13T05:27:53.028Z,999.84
2022-10-13T05:28:53.050Z,999.91
2022-10-13T05:29:53.032Z,999.88
2022-10-13T05:30:52.990Z,999.87
2022-10-13T05:31:52.973Z,999.85
2022-10-13T05:32:53.951Z,999.89
2022-10-13T05:33:52.962Z,999.86
2022-10-13T05:34:52.946Z,999.89
2022-10-13T05:35:53.075Z,999.90
2022-10-13T05:36:52.934Z,999.85
2022-10-13T05:37:52.904Z,999.88
2022-10-13T05:38:52.895Z,999.86
2022-10-13T05:39:52.875Z,999.88
2022-10-13T05:40:52.875Z,999.83
2022-10-13T05:41:52.876Z,999.79
2022-10-13T05:42:52.858Z,999.81
2022-10-13T05:43:52.839Z,999.78
2022-10-13T05:44:52.829Z,999.80
2022-10-13T05:45:52.815Z,999.69
2022-10-13T05:46:52.825Z,999.70
2022-10-13T05:47:52.798Z,999.75
2022-10-13T05:48:52.788Z,999.70
2022-10-13T05:49:52.769Z,999.76
2022-10-13T05:50:52.768Z,999.77
2022-10-13T05:51:52.770Z,999.71
2022-10-13T05:52:52.740Z,999.79
2022-10-13T05:53:57.530Z,999.71
2022-10-13T05:54:53.720Z,999.75
2022-10-13T05:55:52.711Z,999.72
2022-10-13T05:56:52.720Z,999.75
2022-10-13T05:57:52.691Z,999.66
2022-10-13T05:58:52.682Z,999.62
2022-10-13T05:59:52.672Z,999.62
2022-10-13T06:00:52.673Z,999.62
2022-10-13T06:01:52.683Z,999.67
2022-10-13T06:02:52.660Z,999.72
2022-10-13T06:03:52.622Z,999.72
2022-10-13T06:04:52.613Z,999.66
2022-10-13T06:05:53.103Z,999.67
2022-10-13T06:06:52.593Z,999.67
2022-10-13T06:07:52.594Z,999.62
2022-10-13T06:08:52.574Z,999.65
2022-10-13T06:09:52.557Z,999.60
2022-10-13T06:10:52.557Z,999.64
2022-10-13T06:11:52.545Z,999.67
2022-10-13T06:12:52.545Z,999.64
2022-10-13T06:13:52.527Z,999.59
2022-10-13T06:14:52.523Z,999.58
2022-10-13T06:15:52.506Z,999.52
2022-10-13T06:16:52.485Z,999.51
2022-10-13T06:17:52.504Z,999.46
2022-10-13T06:18:52.465Z,999.48
2022-10-13T06:19:52.472Z,999.51
2022-10-13T06:20:52.447Z,999.52
2022-10-13T06:21:52.443Z,999.47
2022-10-13T06:22:52.458Z,999.51
2022-10-13T06:23:52.420Z,999.47
2022-10-13T06:24:52.409Z,999.45
2022-10-13T06:25:52.400Z,999.47
2022-10-13T06:26:52.386Z,999.44
2022-10-13T06:27:52.392Z,999.54
2022-10-13T06:28:56.930Z,999.49
2022-10-13T06:29:53.350Z,999.56
2022-10-13T06:30:52.340Z,999.54
2022-10-13T06:31:52.338Z,999.57
2022-10-13T06:32:52.341Z,999.50
2022-10-13T06:33:52.311Z,999.53
2022-10-13T06:34:52.298Z,999.55
2022-10-13T06:35:52.294Z,999.53
2022-10-13T06:36:52.282Z,999.61
2022-10-13T06:37:52.292Z,999.55
2022-10-13T06:38:52.254Z,999.53
2022-10-13T06:39:52.250Z,999.51
2022-10-13T06:40:52.234Z,999.60
2022-10-13T06:41:52.262Z,999.57
2022-10-13T06:42:52.233Z,999.60
2022-10-13T06:43:52.206Z,999.58
2022-10-13T06:44:52.194Z,999.56
2022-10-13T06:45:52.185Z,999.68
2022-10-13T06:46:52.166Z,999.67
2022-10-13T06:47:52.189Z,999.72
2022-10-13T06:48:52.147Z,999.63
2022-10-13T06:49:52.143Z,999.58
2022-10-13T06:50:52.125Z,999.59
2022-10-13T06:51:52.117Z,999.67
2022-10-13T06:52:52.136Z,999.57
2022-10-13T06:53:52.105Z,999.57
2022-10-13T06:54:52.087Z,999.59
2022-10-13T06:55:52.664Z,999.74
2022-10-13T06:56:52.065Z,999.76
2022-10-13T06:57:52.077Z,999.77
2022-10-13T06:58:52.042Z,999.70
2022-10-13T06:59:52.041Z,999.77
2022-10-13T07:00:52.070Z,999.84
2022-10-13T07:01:52.021Z,999.83
2022-10-13T07:02:52.020Z,999.74
2022-10-13T07:03:51.999Z,999.77
2022-10-13T07:04:51.980Z,999.79
2022-10-13T07:05:51.974Z,999.76
2022-10-13T07:06:51.959Z,999.76
2022-10-13T07:07:51.971Z,999.69
2022-10-13T07:08:51.952Z,999.72
2022-10-13T07:09:51.938Z,999.76
2022-10-13T07:10:51.914Z,999.79
2022-10-13T07:11:51.910Z,999.75
2022-10-13T07:12:51.911Z,999.67
2022-10-13T07:13:51.950Z,999.71
2022-10-13T07:14:51.883Z,999.75
2022-10-13T07:15:51.863Z,999.84
2022-10-13T07:16:51.854Z,999.84
2022-10-13T07:17:51.866Z,999.79
2022-10-13T07:18:51.834Z,999.76
2022-10-13T07:19:55.678Z,999.82
2022-10-13T07:20:52.817Z,999.76
2022-10-13T07:21:51.806Z,999.79
2022-10-13T07:22:51.806Z,999.74
2022-10-13T07:23:51.795Z,999.70
2022-10-13T07:24:51.766Z,999.71
2022-10-13T07:25:51.764Z,999.71
2022-10-13T07:26:51.756Z,999.73
2022-10-13T07:27:51.766Z,999.76
2022-10-13T07:28:51.781Z,999.74
2022-10-13T07:29:51.718Z,999.72
2022-10-13T07:30:51.709Z,999.73
2022-10-13T07:31:51.699Z,999.72
2022-10-13T07:32:51.708Z,999.74
2022-10-13T07:33:51.686Z,999.71
2022-10-13T07:34:51.667Z,999.75
2022-10-13T07:35:51.660Z,999.76
2022-10-13T07:36:51.640Z,999.73
2022-10-13T07:37:51.674Z,999.77
2022-10-13T07:38:51.620Z,999.78
2022-10-13T07:39:51.622Z,999.77
2022-10-13T07:40:51.600Z,999.75
2022-10-13T07:41:51.591Z,999.71
2022-10-13T07:42:51.611Z,999.73
2022-10-13T07:43:51.572Z,999.75
2022-10-13T07:44:51.561Z,999.75
2022-10-13T07:45:51.552Z,999.72
2022-10-13T07:46:51.533Z,999.72
2022-10-13T07:47:51.561Z,999.76
2022-10-13T07:48:51.522Z,999.75
2022-10-13T07:49:51.516Z,999.68
2022-10-13T07:50:51.499Z,999.79
2022-10-13T07:51:51.485Z,999.83
2022-10-13T07:52:51.494Z,999.84
2022-10-13T07:53:51.493Z,999.87
2022-10-13T07:54:51.462Z,999.77
2022-10-13T07:55:51.446Z,999.75
2022-10-13T07:56:51.433Z,999.73
2022-10-13T07:57:51.437Z,999.75
2022-10-13T07:58:51.407Z,999.73
2022-10-13T07:59:51.405Z,999.68
2022-10-13T08:00:51.397Z,999.64
2022-10-13T08:01:51.435Z,999.70
2022-10-13T08:02:51.400Z,999.64
2022-10-13T08:03:51.376Z,999.54
2022-10-13T08:04:51.349Z,999.59
2022-10-13T08:05:51.348Z,999.58
2022-10-13T08:06:51.339Z,999.59
2022-10-13T08:07:54.693Z,999.61
2022-10-13T08:08:52.305Z,999.63
2022-10-13T08:09:51.328Z,999.58
2022-10-13T08:10:51.341Z,999.61
2022-10-13T08:11:51.299Z,999.58
2022-10-13T08:12:51.262Z,999.57
2022-10-13T08:13:51.260Z,999.60
2022-10-13T08:14:51.249Z,999.58
2022-10-13T08:15:51.265Z,999.53
2022-10-13T08:16:53.037Z,999.52
2022-10-13T08:17:51.214Z,999.42
2022-10-13T08:18:51.211Z,999.46
2022-10-13T08:19:51.192Z,999.38
2022-10-13T08:20:51.182Z,999.39
2022-10-13T08:21:59.839Z,999.43
2022-10-13T08:22:52.154Z,999.41
2022-10-13T08:23:51.154Z,999.45
2022-10-13T08:24:51.141Z,999.49
2022-10-13T08:25:51.135Z,999.54
2022-10-13T08:26:51.131Z,999.53
2022-10-13T08:27:53.084Z,999.52
2022-10-13T08:29:09.655Z,999.58
2022-10-13T08:29:52.096Z,999.58
2022-10-13T08:30:51.163Z,999.60
2022-10-13T08:31:51.232Z,999.61
2022-10-13T08:32:51.054Z,999.51
2022-10-13T08:33:51.047Z,999.51
2022-10-13T08:34:51.028Z,999.63
2022-10-13T08:35:51.019Z,999.59
2022-10-13T08:36:51.047Z,999.59
2022-10-13T08:37:51.014Z,999.53
2022-10-13T08:38:50.988Z,999.55
2022-10-13T08:39:50.998Z,999.54
2022-10-13T08:40:50.979Z,999.55
2022-10-13T08:41:50.988Z,999.60
2022-10-13T08:42:50.948Z,999.48
2022-10-13T08:44:33.707Z,999.50
2022-10-13T08:45:51.930Z,999.60
2022-10-13T08:46:50.920Z,999.58
2022-10-13T08:47:50.905Z,999.55
2022-10-13T08:48:50.882Z,999.47
2022-10-13T08:49:50.881Z,999.35
2022-10-13T08:50:50.864Z,999.25
2022-10-13T08:51:50.872Z,999.27
2022-10-13T08:52:50.855Z,999.19
2022-10-13T08:53:50.833Z,999.28
2022-10-13T08:54:50.820Z,999.34
2022-10-13T08:55:50.814Z,999.29
2022-10-13T08:56:50.836Z,999.34
2022-10-13T08:57:50.814Z,999.27
2022-10-13T08:58:50.778Z,999.15
2022-10-13T08:59:50.766Z,999.08
2022-10-13T09:00:50.754Z,998.97
2022-10-13T09:01:50.789Z,998.87
2022-10-13T09:02:50.746Z,999.01
2022-10-13T09:03:50.725Z,999.05
2022-10-13T09:04:50.726Z,999.16
2022-10-13T09:05:50.707Z,999.19
2022-10-13T09:06:50.695Z,999.22
2022-10-13T09:07:50.746Z,999.22
2022-10-13T09:08:50.688Z,999.21
2022-10-13T09:09:50.665Z,999.25
2022-10-13T09:10:50.651Z,999.24
2022-10-13T09:11:50.646Z,999.27
2022-10-13T09:12:50.628Z,999.31
2022-10-13T09:13:50.650Z,999.33
2022-10-13T09:14:50.648Z,999.29
2022-10-13T09:15:50.601Z,999.31
2022-10-13T09:16:50.580Z,999.30
2022-10-13T09:17:50.580Z,999.27
2022-10-13T09:18:50.571Z,999.28
2022-10-13T09:19:50.663Z,999.23
2022-10-13T09:20:50.545Z,999.37
2022-10-13T09:21:50.543Z,999.41
2022-10-13T09:22:50.540Z,999.41
2022-10-13T09:23:50.523Z,999.35
2022-10-13T09:24:50.520Z,999.38
2022-10-13T09:25:50.497Z,999.39
2022-10-13T09:26:50.484Z,999.43
2022-10-13T09:27:50.477Z,999.36
2022-10-13T09:28:50.519Z,999.50
2022-10-13T09:29:50.481Z,999.36
2022-10-13T09:30:50.444Z,999.36
2022-10-13T09:31:50.435Z,999.40
2022-10-13T09:32:50.415Z,999.35
2022-10-13T09:33:50.416Z,999.28
2022-10-13T09:34:50.415Z,999.19
2022-10-13T09:35:50.398Z,999.20
2022-10-13T09:36:50.380Z,999.22
2022-10-13T09:37:50.377Z,999.28
2022-10-13T09:38:50.357Z,999.26
2022-10-13T09:39:50.379Z,999.20
2022-10-13T09:40:50.338Z,999.21
2022-10-13T09:41:50.360Z,999.12
2022-10-13T09:42:50.316Z,999.08
2022-10-13T09:43:50.309Z,999.15
2022-10-13T09:44:50.319Z,999.25
2022-10-13T09:45:50.289Z,999.24
2022-10-13T09:46:50.278Z,999.15
2022-10-13T09:47:50.270Z,999.12
2022-10-13T09:48:50.249Z,999.11
2022-10-13T09:49:50.261Z,999.20
2022-10-13T09:50:50.230Z,999.21
2022-10-13T09:51:50.221Z,999.23
2022-10-13T09:52:50.210Z,999.26
2022-10-13T09:53:50.209Z,999.21
2022-10-13T09:54:50.342Z,999.26
2022-10-13T09:55:50.183Z,999.26
2022-10-13T09:56:50.169Z,999.23
2022-10-13T09:57:50.161Z,999.25
2022-10-13T09:58:50.146Z,999.29
2022-10-13T09:59:50.200Z,999.21
2022-10-13T10:00:50.132Z,999.16
2022-10-13T10:01:50.123Z,999.19
2022-10-13T10:02:50.104Z,999.24
2022-10-13T10:03:50.162Z,999.27
2022-10-13T10:04:50.085Z,999.30
2022-10-13T10:05:50.076Z,999.19
2022-10-13T10:06:50.055Z,999.23
2022-10-13T10:07:50.064Z,999.25
2022-10-13T10:09:02.274Z,999.27
2022-10-13T10:09:51.027Z,999.29
2022-10-13T10:10:50.028Z,999.26
2022-10-13T10:11:50.009Z,999.23
2022-10-13T10:12:49.997Z,999.22
2022-10-13T10:13:50.009Z,999.22
2022-10-13T10:14:49.983Z,999.23
2022-10-13T10:15:49.980Z,999.26
2022-10-13T10:16:49.958Z,999.24
2022-10-13T10:17:49.960Z,999.24
2022-10-13T10:18:52.797Z,999.22
2022-10-13T10:19:50.930Z,999.24
2022-10-13T10:20:49.911Z,999.20
2022-10-13T10:21:49.901Z,999.25
2022-10-13T10:22:49.891Z,999.20
2022-10-13T10:23:49.902Z,999.20
2022-10-13T10:24:49.862Z,999.16
2022-10-13T10:25:49.862Z,999.16
2022-10-13T10:26:49.862Z,999.20
2022-10-13T10:27:49.841Z,999.21
2022-10-13T10:28:49.966Z,999.27
2022-10-13T10:29:49.812Z,999.21
2022-10-13T10:30:49.816Z,999.20
2022-10-13T10:31:49.792Z,999.16
2022-10-13T10:32:49.794Z,999.14
2022-10-13T10:33:49.786Z,999.18
2022-10-13T10:34:49.765Z,999.16
2022-10-13T10:35:49.756Z,999.12
2022-10-13T10:36:49.745Z,999.20
2022-10-13T10:37:49.726Z,999.10
2022-10-13T10:38:49.737Z,999.07
2022-10-13T10:39:49.710Z,999.06
2022-10-13T10:40:49.697Z,999.07
2022-10-13T10:41:49.680Z,999.06
2022-10-13T10:42:52.104Z,999.13
2022-10-13T10:43:49.688Z,999.12
2022-10-13T10:44:49.663Z,999.12
2022-10-13T10:45:49.640Z,999.02
2022-10-13T10:46:49.639Z,999.03
2022-10-13T10:47:49.619Z,999.02
2022-10-13T10:48:49.617Z,998.97
2022-10-13T10:49:49.612Z,998.94
2022-10-13T10:50:49.591Z,998.92
2022-10-13T10:51:49.581Z,998.89
2022-10-13T10:52:49.571Z,998.87
2022-10-13T10:53:49.551Z,998.89
2022-10-13T10:54:49.694Z,998.88
2022-10-13T10:55:49.532Z,998.82
2022-10-13T10:56:49.524Z,998.79
2022-10-13T10:57:49.510Z,998.81
2022-10-13T10:58:49.519Z,998.79
2022-10-13T10:59:56.234Z,998.79
2022-10-13T11:00:49.484Z,998.81
2022-10-13T11:01:49.497Z,998.82
2022-10-13T11:02:49.463Z,998.81
2022-10-13T11:03:49.444Z,998.69
2022-10-13T11:04:49.454Z,998.67
2022-10-13T11:05:49.427Z,998.65
2022-10-13T11:06:49.417Z,998.62
2022-10-13T11:07:49.406Z,998.57
2022-10-13T11:08:49.405Z,998.63
2022-10-13T11:09:49.403Z,998.56
2022-10-13T11:10:49.377Z,998.54
2022-10-13T11:11:49.358Z,998.46
2022-10-13T11:12:49.375Z,998.48
2022-10-13T11:13:49.348Z,998.49
2022-10-13T11:14:49.357Z,998.38
2022-10-13T11:15:49.318Z,998.51
2022-10-13T11:16:49.317Z,998.54
2022-10-13T11:17:49.300Z,998.49
2022-10-13T11:18:49.290Z,998.42
2022-10-13T11:19:49.298Z,998.41
2022-10-13T11:20:49.271Z,998.40
2022-10-13T11:21:49.262Z,998.39
2022-10-13T11:22:49.251Z,998.36
2022-10-13T11:23:49.232Z,998.37
2022-10-13T11:24:49.244Z,998.35
2022-10-13T11:25:49.213Z,998.41
2022-10-13T11:26:49.213Z,998.31
2022-10-13T11:27:49.195Z,998.29
2022-10-13T11:28:49.245Z,998.25
2022-10-13T11:29:49.217Z,998.32
2022-10-13T11:30:49.179Z,998.27
2022-10-13T11:31:49.154Z,998.24
2022-10-13T11:32:49.144Z,998.23
2022-10-13T11:33:49.126Z,998.22
2022-10-13T11:34:49.137Z,998.21
2022-10-13T11:35:49.108Z,998.22
2022-10-13T11:36:49.107Z,998.22
2022-10-13T11:38:05.716Z,998.22
2022-10-13T11:38:50.077Z,998.17
2022-10-13T11:39:49.079Z,998.15
2022-10-13T11:40:49.060Z,998.12
2022-10-13T11:41:49.048Z,998.10
2022-10-13T11:42:49.048Z,998.08
2022-10-13T11:43:49.019Z,998.02
2022-10-13T11:44:49.113Z,998.04
2022-10-13T11:45:49.008Z,998.05
2022-10-13T11:46:48.999Z,997.95
2022-10-13T11:47:48.984Z,997.98
2022-10-13T11:48:48.979Z,997.99
2022-10-13T11:49:48.990Z,997.92
2022-10-13T11:50:48.953Z,998.02
2022-10-13T11:51:48.949Z,997.97
2022-10-13T11:52:48.933Z,997.90
2022-10-13T11:53:48.914Z,997.86
2022-10-13T11:54:48.933Z,997.84
2022-10-13T11:55:48.904Z,997.76
2022-10-13T11:56:49.105Z,997.82
2022-10-13T11:57:48.884Z,997.80
2022-10-13T11:58:48.877Z,997.83
2022-10-13T11:59:48.877Z,997.79
2022-10-13T12:00:48.870Z,997.83
2022-10-13T12:01:48.838Z,997.73
2022-10-13T12:02:48.847Z,997.82
2022-10-13T12:03:48.818Z,997.76
2022-10-13T12:04:48.829Z,997.79
2022-10-13T12:05:48.791Z,997.73
2022-10-13T12:06:48.780Z,997.84
2022-10-13T12:07:48.777Z,997.87
2022-10-13T12:08:48.767Z,997.82
2022-10-13T12:09:48.777Z,997.78
2022-10-13T12:10:48.745Z,997.79
2022-10-13T12:11:48.734Z,997.82
2022-10-13T12:12:48.741Z,997.78
2022-10-13T12:13:48.713Z,997.74
2022-10-13T12:14:48.721Z,997.78
2022-10-13T12:15:48.685Z,997.73
2022-10-13T12:16:48.709Z,997.71
2022-10-13T12:17:48.674Z,997.70
2022-10-13T12:18:48.664Z,997.70
2022-10-13T12:19:48.664Z,997.70
2022-10-13T12:20:48.636Z,997.70